Time;durP1;ratioP1;P1;durP2;ratioP2;P2;SDS_P1;SDS_P2;PMS_P1;PMS_P2;Temp;Humidity;BMP_temperature;BMP_pressure;BME280_temperature;BME280_humidity;BME280_pressure;Samples;Min_cycle;Max_cycle;Signal;HPM_P1;HPM_P2
2023/04/17 00:01:42;;;;;;;37.50;22.90;;;8.40;99.90;;;;;;5114595;28;20588;-86
2023/04/17 00:04:09;;;;;;;33.30;24.60;;;8.40;99.90;;;;;;5109695;28;20278;-88
2023/04/17 00:06:37;;;;;;;36.00;24.30;;;8.40;99.90;;;;;;5115074;28;20219;-87
2023/04/17 00:09:04;;;;;;;37.50;25.23;;;8.40;99.90;;;;;;5099924;28;20217;-86
2023/04/17 00:11:31;;;;;;;44.70;25.47;;;8.40;99.90;;;;;;5094854;28;20239;-86
2023/04/17 00:13:58;;;;;;;43.93;25.80;;;8.40;99.90;;;;;;5094409;28;20220;-87
2023/04/17 00:16:27;;;;;;;42.10;26.10;;;8.40;99.90;;;;;;5094895;28;20197;-86
2023/04/17 00:18:54;;;;;;;43.13;24.80;;;8.40;99.90;;;;;;5094649;28;20275;-87
2023/04/17 00:21:20;;;;;;;40.73;25.83;;;8.40;99.90;;;;;;5094857;28;20279;-87
2023/04/17 00:23:47;;;;;;;40.87;24.77;;;8.40;99.90;;;;;;5094788;28;20683;-88
2023/04/17 00:26:15;;;;;;;41.70;24.73;;;8.40;99.90;;;;;;5094727;28;20264;-87
2023/04/17 00:28:42;;;;;;;39.87;25.90;;;8.50;99.90;;;;;;5094636;28;20258;-85
2023/04/17 00:31:09;;;;;;;33.27;23.40;;;8.40;99.90;;;;;;5094705;28;20671;-86
2023/04/17 00:33:37;;;;;;;40.43;24.97;;;8.40;99.90;;;;;;5094512;28;20279;-86
2023/04/17 00:36:05;;;;;;;37.07;23.80;;;8.30;99.90;;;;;;5094495;28;20303;-87
2023/04/17 00:38:32;;;;;;;40.17;24.33;;;8.30;99.90;;;;;;5094337;28;20242;-86
2023/04/17 00:40:58;;;;;;;39.87;25.13;;;8.30;99.90;;;;;;5094477;28;20312;-88
2023/04/17 00:43:25;;;;;;;40.00;25.83;;;8.30;99.90;;;;;;5094326;28;20318;-86
2023/04/17 00:45:53;;;;;;;40.47;25.13;;;8.20;99.90;;;;;;5094675;28;20200;-87
2023/04/17 00:48:22;;;;;;;39.03;24.77;;;8.20;99.90;;;;;;5093009;28;20220;-81
2023/04/17 00:50:52;;;;;;;42.97;23.97;;;8.30;99.90;;;;;;5092074;28;20201;-84
2023/04/17 00:53:19;;;;;;;43.80;25.23;;;8.20;99.90;;;;;;5092848;28;20204;-85
2023/04/17 00:55:50;;;;;;;37.57;23.70;;;8.20;99.90;;;;;;5093507;28;20288;-87
2023/04/17 00:58:17;;;;;;;44.00;25.10;;;8.20;99.90;;;;;;5094070;28;20299;-84
2023/04/17 01:00:47;;;;;;;42.33;24.23;;;8.20;99.90;;;;;;5092927;28;20654;-84
2023/04/17 01:03:15;;;;;;;40.60;25.17;;;8.20;99.90;;;;;;5104218;28;20204;-84
2023/04/17 01:05:43;;;;;;;41.50;23.87;;;8.10;99.90;;;;;;5112805;28;20257;-80
2023/04/17 01:08:11;;;;;;;42.60;24.00;;;8.10;99.90;;;;;;5097066;28;20222;-81
2023/04/17 01:10:38;;;;;;;40.13;25.43;;;8.20;99.90;;;;;;5092747;28;20625;-83
2023/04/17 01:13:06;;;;;;;43.90;26.03;;;8.10;99.90;;;;;;5096708;28;20220;-86
2023/04/17 01:15:34;;;;;;;42.87;24.00;;;8.20;99.90;;;;;;5097355;28;20292;-86
2023/04/17 01:18:01;;;;;;;47.83;26.93;;;8.20;99.90;;;;;;5096317;28;20197;-79
2023/04/17 01:20:30;;;;;;;42.00;25.67;;;8.20;99.90;;;;;;5096365;28;20216;-86
2023/04/17 01:22:58;;;;;;;48.93;26.47;;;8.20;99.90;;;;;;5096219;28;20619;-83
2023/04/17 01:25:27;;;;;;;44.03;26.57;;;8.20;99.90;;;;;;5095890;28;20265;-81
2023/04/17 01:27:54;;;;;;;43.13;26.03;;;8.20;99.90;;;;;;5096121;28;20307;-80
2023/04/17 01:30:21;;;;;;;46.17;26.97;;;8.20;99.90;;;;;;5095642;28;20193;-85
2023/04/17 01:32:48;;;;;;;48.13;27.47;;;8.30;99.90;;;;;;5094699;28;20656;-84
2023/04/17 01:35:15;;;;;;;44.93;26.10;;;8.30;99.90;;;;;;5095198;28;20238;-84
2023/04/17 01:37:41;;;;;;;42.37;26.13;;;8.20;99.90;;;;;;5094919;28;20278;-84
2023/04/17 01:40:09;;;;;;;45.20;25.20;;;8.20;99.90;;;;;;5094710;28;20189;-82
2023/04/17 01:42:38;;;;;;;46.00;26.43;;;8.20;99.90;;;;;;5095920;28;20200;-82
2023/04/17 01:45:06;;;;;;;42.40;25.20;;;8.20;99.90;;;;;;5095625;28;20217;-84
2023/04/17 01:47:33;;;;;;;43.67;26.43;;;8.20;99.90;;;;;;5096641;28;20312;-82
2023/04/17 01:49:59;;;;;;;43.57;25.00;;;8.20;99.90;;;;;;5097402;28;20283;-84
2023/04/17 01:52:26;;;;;;;45.13;26.97;;;8.20;99.90;;;;;;5097635;28;20299;-80
2023/04/17 01:54:53;;;;;;;46.87;26.53;;;8.20;99.90;;;;;;5096622;28;20197;-85
2023/04/17 01:57:20;;;;;;;45.53;26.73;;;8.20;99.90;;;;;;5107482;28;20210;-86
2023/04/17 01:59:48;;;;;;;50.00;27.27;;;8.20;99.90;;;;;;5115769;28;20691;-80
2023/04/17 02:02:16;;;;;;;51.20;28.63;;;8.20;99.90;;;;;;5116917;28;20211;-86
2023/04/17 02:04:43;;;;;;;51.77;28.10;;;8.20;99.90;;;;;;5116889;28;20269;-83
2023/04/17 02:07:10;;;;;;;52.70;28.43;;;8.20;99.90;;;;;;5100559;28;20292;-82
2023/04/17 02:09:37;;;;;;;57.13;28.70;;;8.20;99.90;;;;;;5095822;28;20193;-81
2023/04/17 02:12:04;;;;;;;56.93;28.47;;;8.10;99.90;;;;;;5095168;28;20215;-80
2023/04/17 02:14:31;;;;;;;55.60;29.47;;;8.20;99.90;;;;;;5095697;28;20200;-83
2023/04/17 02:16:59;;;;;;;57.30;29.20;;;8.20;99.90;;;;;;5095164;28;20843;-83
2023/04/17 02:19:26;;;;;;;50.33;28.23;;;8.20;99.90;;;;;;5095565;28;20216;-84
2023/04/17 02:21:53;;;;;;;45.20;27.87;;;8.20;99.90;;;;;;5094760;28;20280;-85
2023/04/17 02:24:20;;;;;;;52.30;28.57;;;8.20;99.90;;;;;;5095196;28;20201;-83
2023/04/17 02:26:47;;;;;;;47.43;27.30;;;8.20;99.90;;;;;;5095432;28;20202;-85
2023/04/17 02:29:14;;;;;;;46.07;26.23;;;8.20;99.90;;;;;;5094998;28;20624;-82
2023/04/17 02:31:41;;;;;;;39.93;25.23;;;8.20;99.90;;;;;;5095310;28;20505;-86
2023/04/17 02:34:09;;;;;;;39.63;24.47;;;8.20;99.90;;;;;;5095448;28;20199;-84
2023/04/17 02:36:36;;;;;;;41.60;24.03;;;8.20;99.90;;;;;;5095651;28;20211;-82
2023/04/17 02:39:04;;;;;;;38.43;24.07;;;8.10;99.90;;;;;;5096412;28;20276;-86
2023/04/17 02:41:31;;;;;;;40.60;24.63;;;8.10;99.90;;;;;;5095178;28;20588;-87
2023/04/17 02:43:58;;;;;;;38.93;23.77;;;8.10;99.90;;;;;;5094131;28;20238;-88
2023/04/17 02:46:25;;;;;;;38.33;23.53;;;8.10;99.90;;;;;;5094582;28;20613;-83
2023/04/17 02:48:52;;;;;;;40.10;22.63;;;8.20;99.90;;;;;;5094375;28;20208;-83
2023/04/17 02:51:20;;;;;;;34.50;22.73;;;8.10;99.90;;;;;;5097502;28;20193;-83
2023/04/17 02:53:48;;;;;;;44.07;23.70;;;8.20;99.90;;;;;;5115015;28;20275;-83
2023/04/17 02:56:15;;;;;;;37.60;23.30;;;8.20;99.90;;;;;;5114089;28;20486;-85
2023/04/17 02:58:44;;;;;;;38.43;24.23;;;8.20;99.90;;;;;;5113403;28;20200;-87
2023/04/17 03:01:11;;;;;;;38.57;23.87;;;8.20;99.90;;;;;;5096342;28;20678;-87
2023/04/17 03:03:40;;;;;;;37.27;23.90;;;8.20;99.90;;;;;;5098098;28;20574;-87
2023/04/17 03:06:08;;;;;;;44.37;23.20;;;8.20;99.90;;;;;;5104040;28;20622;-88
2023/04/17 03:08:37;;;;;;;39.10;23.07;;;8.20;99.90;;;;;;5108326;22;20232;-87
2023/04/17 03:11:05;;;;;;;37.67;23.23;;;8.20;99.90;;;;;;5096156;28;20283;-88
2023/04/17 03:13:35;;;;;;;37.73;22.87;;;8.20;99.90;;;;;;5096150;28;20205;-88
2023/04/17 03:16:03;;;;;;;38.47;21.47;;;8.30;99.90;;;;;;5082397;28;20212;-86
2023/04/17 03:18:30;;;;;;;39.40;24.17;;;8.20;99.90;;;;;;5074875;28;20203;-89
2023/04/17 03:20:57;;;;;;;37.03;23.53;;;8.20;99.90;;;;;;5075307;28;20189;-86
2023/04/17 03:23:24;;;;;;;38.27;22.60;;;8.20;99.90;;;;;;5074816;28;20265;-86
2023/04/17 03:25:52;;;;;;;38.60;23.23;;;8.20;99.90;;;;;;5074683;28;20193;-87
2023/04/17 03:28:20;;;;;;;39.87;23.53;;;8.20;99.90;;;;;;5074367;28;20289;-85
2023/04/17 03:30:48;;;;;;;35.40;22.50;;;8.20;99.90;;;;;;5077526;28;20563;-85
2023/04/17 03:33:15;;;;;;;33.60;21.93;;;8.20;99.90;;;;;;5094660;28;20204;-86
2023/04/17 03:35:42;;;;;;;32.47;22.03;;;8.20;99.90;;;;;;5093839;28;20199;-84
2023/04/17 03:38:09;;;;;;;33.47;22.37;;;8.20;99.90;;;;;;5094311;28;20193;-83
2023/04/17 03:40:36;;;;;;;44.70;24.67;;;8.20;99.90;;;;;;5094311;28;20265;-83
2023/04/17 03:43:05;;;;;;;44.83;24.87;;;8.20;99.90;;;;;;5094422;28;20201;-84
2023/04/17 03:45:32;;;;;;;39.23;24.27;;;8.20;99.90;;;;;;5093806;28;20227;-82
2023/04/17 03:48:00;;;;;;;35.50;24.10;;;8.20;99.90;;;;;;5093784;28;20219;-85
2023/04/17 03:50:26;;;;;;;38.17;23.07;;;8.20;99.90;;;;;;5094362;28;20196;-86
2023/04/17 03:52:53;;;;;;;35.47;22.27;;;8.20;99.90;;;;;;5093958;28;20201;-82
2023/04/17 03:55:20;;;;;;;40.70;22.90;;;8.20;99.90;;;;;;5093680;28;20279;-85
2023/04/17 03:57:49;;;;;;;38.80;23.93;;;8.20;99.90;;;;;;5093840;28;20670;-87
2023/04/17 04:00:20;;;;;;;37.50;23.97;;;8.10;99.90;;;;;;5093883;28;20290;-83
2023/04/17 04:02:47;;;;;;;37.90;23.40;;;8.20;99.90;;;;;;5094443;28;20193;-88
2023/04/17 04:05:14;;;;;;;40.43;25.27;;;8.20;99.90;;;;;;5094632;28;20192;-86
2023/04/17 04:07:41;;;;;;;42.93;26.83;;;8.20;99.90;;;;;;5093840;28;20387;-85
2023/04/17 04:10:09;;;;;;;43.90;24.47;;;8.20;99.90;;;;;;5094419;28;20197;-87
2023/04/17 04:12:36;;;;;;;45.63;26.37;;;8.20;99.90;;;;;;5094618;28;20201;-86
2023/04/17 04:15:03;;;;;;;41.27;25.03;;;8.20;99.90;;;;;;5094732;28;20220;-88
2023/04/17 04:17:31;;;;;;;37.20;22.53;;;8.30;99.90;;;;;;5094530;28;20220;-86
2023/04/17 04:19:58;;;;;;;43.77;23.27;;;8.20;99.90;;;;;;5094765;28;20212;-87
2023/04/17 04:22:27;;;;;;;38.23;23.03;;;8.20;99.90;;;;;;5094990;28;20205;-88
2023/04/17 04:24:54;;;;;;;38.90;24.17;;;8.10;99.90;;;;;;5094351;28;20540;-82
2023/04/17 04:27:21;;;;;;;36.73;22.57;;;8.20;99.90;;;;;;5103817;28;20207;-84
2023/04/17 04:29:49;;;;;;;34.57;21.93;;;8.10;99.90;;;;;;5114225;28;20223;-85
2023/04/17 04:32:16;;;;;;;33.70;21.27;;;8.10;99.90;;;;;;5113788;28;20281;-82
2023/04/17 04:34:44;;;;;;;38.07;23.00;;;8.10;99.90;;;;;;5113622;28;20855;-82
2023/04/17 04:37:14;;;;;;;36.97;23.33;;;8.10;99.90;;;;;;5113662;28;20228;-80
2023/04/17 04:39:41;;;;;;;39.13;23.40;;;8.20;99.90;;;;;;5107009;28;20763;-81
2023/04/17 04:42:08;;;;;;;33.83;20.70;;;8.20;99.90;;;;;;5092268;28;20756;-81
2023/04/17 04:44:36;;;;;;;33.23;21.70;;;8.10;99.90;;;;;;5092634;28;20280;-81
2023/04/17 04:47:03;;;;;;;33.83;21.53;;;8.10;99.90;;;;;;5094854;28;20641;-85
2023/04/17 04:49:29;;;;;;;34.60;22.70;;;8.20;99.90;;;;;;5095723;28;20225;-81
2023/04/17 04:51:58;;;;;;;30.00;20.37;;;8.10;99.90;;;;;;5096227;28;20196;-81
2023/04/17 04:54:25;;;;;;;34.53;21.43;;;8.10;99.90;;;;;;5096627;28;20577;-82
2023/04/17 04:56:51;;;;;;;32.77;21.33;;;8.20;99.90;;;;;;5096722;28;20215;-81
2023/04/17 04:59:18;;;;;;;33.17;20.33;;;8.20;99.90;;;;;;5097010;28;20497;-80
2023/04/17 05:01:45;;;;;;;30.83;20.37;;;8.10;99.90;;;;;;5096885;28;20581;-82
2023/04/17 05:04:12;;;;;;;32.27;20.77;;;8.20;99.90;;;;;;5096468;28;20641;-84
2023/04/17 05:06:39;;;;;;;30.93;20.63;;;8.20;99.90;;;;;;5099188;28;20280;-82
2023/04/17 05:09:08;;;;;;;43.17;23.57;;;8.20;99.90;;;;;;5100263;28;20246;-83
2023/04/17 05:11:35;;;;;;;32.03;20.60;;;8.20;99.90;;;;;;5099710;28;20199;-87
2023/04/17 05:14:02;;;;;;;34.27;22.97;;;8.20;99.90;;;;;;5099671;28;20208;-86
2023/04/17 05:16:29;;;;;;;29.13;20.07;;;8.30;99.90;;;;;;5098524;28;20200;-86
2023/04/17 05:18:56;;;;;;;34.90;20.53;;;8.30;99.90;;;;;;5098885;28;20192;-87
2023/04/17 05:21:23;;;;;;;34.47;22.43;;;8.20;99.90;;;;;;5099017;28;20279;-87
2023/04/17 05:23:50;;;;;;;31.40;20.80;;;8.30;99.90;;;;;;5118348;28;20192;-87
2023/04/17 05:26:20;;;;;;;34.03;21.87;;;8.30;99.90;;;;;;5118266;28;20275;-85
2023/04/17 05:28:47;;;;;;;35.70;22.23;;;8.30;99.90;;;;;;5118416;28;20299;-88
2023/04/17 05:31:14;;;;;;;30.93;21.47;;;8.30;99.90;;;;;;5118144;28;20306;-88
2023/04/17 05:33:41;;;;;;;35.03;21.70;;;8.40;99.90;;;;;;5105563;28;20257;-87
2023/04/17 05:36:09;;;;;;;32.43;22.57;;;8.40;99.90;;;;;;5097757;28;20323;-87
2023/04/17 05:38:36;;;;;;;28.67;21.20;;;8.40;99.90;;;;;;5097591;28;20200;-88
2023/04/17 05:41:02;;;;;;;33.50;23.20;;;8.40;99.90;;;;;;5103264;28;20689;-88
2023/04/17 05:43:31;;;;;;;32.07;22.17;;;8.40;99.90;;;;;;5118096;28;20195;-85
2023/04/17 05:45:58;;;;;;;29.87;20.63;;;8.50;99.90;;;;;;5115314;28;20295;-86
2023/04/17 05:48:24;;;;;;;36.03;24.83;;;8.50;99.90;;;;;;5097501;28;20315;-86
2023/04/17 05:50:51;;;;;;;33.47;23.47;;;8.50;99.90;;;;;;5097722;28;20242;-86
2023/04/17 05:53:18;;;;;;;34.43;23.47;;;8.50;99.90;;;;;;5097844;28;20207;-87
2023/04/17 05:55:45;;;;;;;32.33;22.70;;;8.50;99.90;;;;;;5109137;28;20207;-87
2023/04/17 05:58:12;;;;;;;32.83;22.70;;;8.60;99.90;;;;;;5117642;28;20222;-87
2023/04/17 06:00:41;;;;;;;32.93;23.40;;;8.60;99.90;;;;;;5097206;28;20236;-87
2023/04/17 06:03:09;;;;;;;30.10;22.00;;;8.60;99.90;;;;;;5097430;28;20250;-88
2023/04/17 06:05:36;;;;;;;31.50;23.37;;;8.60;99.90;;;;;;5097243;28;20392;-89
2023/04/17 06:08:03;;;;;;;33.33;24.43;;;8.70;99.90;;;;;;5096874;28;20308;-87
2023/04/17 06:10:32;;;;;;;32.07;22.27;;;8.60;99.90;;;;;;5096808;28;20211;-87
2023/04/17 06:12:59;;;;;;;34.80;25.00;;;8.60;99.90;;;;;;5096856;28;20197;-88
2023/04/17 06:15:26;;;;;;;30.67;22.23;;;8.70;99.90;;;;;;5097005;28;20440;-86
2023/04/17 06:17:54;;;;;;;34.00;22.47;;;8.70;99.90;;;;;;5099397;28;20230;-86
2023/04/17 06:20:21;;;;;;;34.53;22.77;;;8.80;99.90;;;;;;5109562;28;20247;-85
2023/04/17 06:22:48;;;;;;;34.13;22.50;;;8.80;99.90;;;;;;5096501;28;20204;-86
2023/04/17 06:25:15;;;;;;;34.20;23.63;;;8.80;99.90;;;;;;5096550;28;20242;-86
2023/04/17 06:27:42;;;;;;;36.33;24.10;;;8.90;99.90;;;;;;5096425;28;20291;-88
2023/04/17 06:30:09;;;;;;;39.13;26.40;;;8.90;99.90;;;;;;5096509;28;20538;-83
2023/04/17 06:32:40;;;;;;;38.90;26.47;;;8.90;99.90;;;;;;5096628;28;20285;-87
2023/04/17 06:35:10;;;;;;;40.00;25.60;;;8.90;99.90;;;;;;5096430;28;20196;-86
2023/04/17 06:37:37;;;;;;;31.97;23.53;;;8.90;99.90;;;;;;5096943;28;20238;-87
2023/04/17 06:40:04;;;;;;;45.40;30.67;;;8.80;99.90;;;;;;5097525;28;20201;-88
2023/04/17 06:42:33;;;;;;;40.30;26.10;;;8.90;99.90;;;;;;5116413;28;20200;-89
2023/04/17 06:45:00;;;;;;;39.00;27.17;;;8.80;99.90;;;;;;5116171;28;20278;-85
2023/04/17 06:47:27;;;;;;;39.57;27.00;;;8.80;99.90;;;;;;5116395;28;20278;-88
2023/04/17 06:49:56;;;;;;;39.43;26.60;;;8.90;99.90;;;;;;5116342;28;20268;-86
2023/04/17 06:52:25;;;;;;;40.50;27.57;;;8.90;99.90;;;;;;5115705;28;20203;-86
2023/04/17 06:54:54;;;;;;;42.80;28.40;;;8.80;99.90;;;;;;5115518;28;20196;-87
2023/04/17 06:57:21;;;;;;;43.13;28.07;;;8.90;99.90;;;;;;5115959;28;20195;-86
2023/04/17 06:59:48;;;;;;;39.47;27.63;;;8.90;99.90;;;;;;5115769;28;20502;-85
2023/04/17 07:02:58;;;;;;;41.47;27.27;;;9.00;99.90;;;;;;5099475;28;20484;-79
2023/04/17 07:05:26;;;;;;;38.50;25.47;;;9.00;99.90;;;;;;5103374;28;20785;-88
2023/04/17 07:07:54;;;;;;;41.03;26.77;;;9.10;99.90;;;;;;5111216;28;20323;-87
2023/04/17 07:10:21;;;;;;;42.93;27.17;;;9.00;99.90;;;;;;5113963;28;20224;-84
2023/04/17 07:12:48;;;;;;;39.80;26.70;;;9.00;99.90;;;;;;5110104;28;20272;-81
2023/04/17 07:15:15;;;;;;;43.43;27.67;;;9.00;99.90;;;;;;5099983;28;20291;-86
2023/04/17 07:17:42;;;;;;;39.20;27.37;;;8.90;99.90;;;;;;5113411;28;20204;-85
2023/04/17 07:20:11;;;;;;;41.90;28.40;;;8.90;99.90;;;;;;5103415;28;20293;-85
2023/04/17 07:22:38;;;;;;;34.43;24.33;;;9.00;99.90;;;;;;5095999;28;20584;-84
2023/04/17 07:25:08;;;;;;;38.27;25.03;;;9.00;99.90;;;;;;5112529;28;20545;-85
2023/04/17 07:27:37;;;;;;;39.57;25.40;;;9.00;99.90;;;;;;5100339;28;20474;-86
2023/04/17 07:30:06;;;;;;;34.67;25.47;;;9.00;99.90;;;;;;5092896;28;20228;-84
2023/04/17 07:32:33;;;;;;;37.30;26.13;;;9.00;99.90;;;;;;5097006;28;20219;-84
2023/04/17 07:35:00;;;;;;;38.13;26.67;;;9.10;99.90;;;;;;5093322;28;20289;-80
2023/04/17 07:37:26;;;;;;;36.40;25.47;;;9.10;99.90;;;;;;5094949;28;20192;-85
2023/04/17 07:39:53;;;;;;;37.10;24.47;;;9.10;99.90;;;;;;5105317;28;20742;-81
2023/04/17 07:42:22;;;;;;;37.90;26.17;;;9.10;99.90;;;;;;5109828;28;20196;-81
2023/04/17 07:44:49;;;;;;;35.53;24.17;;;9.20;99.90;;;;;;5113104;28;20200;-85
2023/04/17 07:47:15;;;;;;;32.40;23.90;;;9.10;99.90;;;;;;5110475;28;20549;-81
2023/04/17 07:49:47;;;;;;;36.00;27.10;;;9.10;99.90;;;;;;5100596;28;20634;-85
2023/04/17 07:52:16;;;;;;;36.90;24.70;;;9.10;99.90;;;;;;5111856;28;20253;-80
2023/04/17 07:54:43;;;;;;;38.80;26.47;;;9.10;99.90;;;;;;5110356;28;20291;-82
2023/04/17 07:57:10;;;;;;;39.63;25.20;;;9.20;99.90;;;;;;5113535;28;20818;-80
2023/04/17 07:59:39;;;;;;;36.33;24.40;;;9.20;99.90;;;;;;5092190;28;20283;-84
2023/04/17 08:02:06;;;;;;;35.53;23.40;;;9.20;99.90;;;;;;5109450;28;20221;-81
2023/04/17 08:04:33;;;;;;;33.07;22.80;;;9.20;99.90;;;;;;5094900;28;20193;-82
2023/04/17 08:07:00;;;;;;;36.60;26.50;;;9.20;99.90;;;;;;5092042;28;20321;-84
2023/04/17 08:09:27;;;;;;;36.27;24.77;;;9.20;99.90;;;;;;5099559;28;20647;-81
2023/04/17 08:11:55;;;;;;;39.00;25.83;;;9.20;99.90;;;;;;5093220;28;20331;-82
2023/04/17 08:14:22;;;;;;;39.13;26.23;;;9.20;99.90;;;;;;5093672;28;20227;-82
2023/04/17 08:16:50;;;;;;;40.53;25.30;;;9.20;99.90;;;;;;5113858;28;20273;-82
2023/04/17 08:19:18;;;;;;;33.73;24.27;;;9.30;99.90;;;;;;5097067;28;20203;-82
2023/04/17 08:21:46;;;;;;;42.07;26.93;;;9.40;99.90;;;;;;5104905;28;20192;-86
2023/04/17 08:24:14;;;;;;;42.30;27.63;;;9.50;99.90;;;;;;5105293;28;20204;-81
2023/04/17 08:26:41;;;;;;;37.63;24.93;;;9.50;99.90;;;;;;5100543;28;20274;-84
2023/04/17 08:29:07;;;;;;;43.00;25.57;;;9.60;99.90;;;;;;5100434;28;20231;-84
2023/04/17 08:31:36;;;;;;;39.77;25.53;;;9.70;99.90;;;;;;5108370;28;20215;-83
2023/04/17 08:34:04;;;;;;;34.10;24.27;;;9.70;99.90;;;;;;5113989;28;20299;-83
2023/04/17 08:36:31;;;;;;;37.80;25.70;;;9.80;99.90;;;;;;5097755;28;20644;-85
2023/04/17 08:38:58;;;;;;;31.40;22.77;;;9.90;99.90;;;;;;5096458;28;20353;-83
2023/04/17 08:41:33;;;;;;;37.00;26.60;;;9.90;99.90;;;;;;5099533;28;20195;-81
2023/04/17 08:44:02;;;;;;;36.40;25.83;;;10.00;99.90;;;;;;5107353;28;20287;-82
2023/04/17 08:46:30;;;;;;;37.17;25.57;;;9.90;99.90;;;;;;5096267;28;20265;-82
2023/04/17 08:48:57;;;;;;;33.57;23.00;;;10.00;99.90;;;;;;5107186;28;20691;-84
2023/04/17 08:51:26;;;;;;;33.23;24.43;;;10.10;99.90;;;;;;5114112;28;20287;-84
2023/04/17 08:53:53;;;;;;;32.70;22.47;;;10.10;99.90;;;;;;5107499;28;20196;-82
2023/04/17 08:56:21;;;;;;;31.80;22.93;;;10.10;99.90;;;;;;5100833;28;20216;-82
2023/04/17 08:58:48;;;;;;;30.57;22.20;;;10.10;99.90;;;;;;5106218;28;20204;-82
2023/04/17 09:01:16;;;;;;;31.73;22.23;;;10.20;99.90;;;;;;5099366;28;20211;-84
2023/04/17 09:03:44;;;;;;;27.97;20.67;;;10.30;99.90;;;;;;5097023;28;20242;-81
2023/04/17 09:06:11;;;;;;;27.90;20.43;;;10.40;99.90;;;;;;5104368;28;20299;-81
2023/04/17 09:08:55;;;;;;;29.03;21.13;;;10.50;99.90;;;;;;5108517;28;20942;-83
2023/04/17 09:11:22;;;;;;;29.93;19.90;;;10.50;99.90;;;;;;5108147;28;20204;-80
2023/04/17 09:13:49;;;;;;;30.43;21.20;;;10.60;99.90;;;;;;5102997;28;20219;-87
2023/04/17 09:16:18;;;;;;;28.47;21.47;;;10.70;99.90;;;;;;5116540;28;20206;-80
2023/04/17 09:18:46;;;;;;;28.17;21.87;;;10.70;99.90;;;;;;5102055;28;20227;-79
2023/04/17 09:21:15;;;;;;;28.00;21.60;;;10.70;99.90;;;;;;5105631;28;20665;-83
2023/04/17 09:23:51;;;;;;;28.20;20.30;;;10.60;99.90;;;;;;5107934;28;20684;-80
2023/04/17 09:26:20;;;;;;;30.70;21.93;;;10.60;99.90;;;;;;5095884;28;20205;-83
2023/04/17 09:29:06;;;;;;;25.17;20.50;;;10.50;99.90;;;;;;5101487;28;20211;-85
2023/04/17 09:31:34;;;;;;;31.33;20.07;;;10.50;99.90;;;;;;5094598;28;20262;-82
2023/04/17 09:34:03;;;;;;;26.90;20.20;;;10.50;99.90;;;;;;5095518;28;20280;-80
2023/04/17 09:36:33;;;;;;;27.20;19.57;;;10.50;99.90;;;;;;5105523;28;20208;-81
2023/04/17 09:39:04;;;;;;;31.63;20.90;;;10.50;99.90;;;;;;5112086;28;20200;-84
2023/04/17 09:41:33;;;;;;;26.43;19.07;;;10.60;99.90;;;;;;5109809;28;20198;-83
2023/04/17 09:44:04;;;;;;;31.87;20.53;;;10.70;99.90;;;;;;5116208;28;20231;-81
2023/04/17 09:46:36;;;;;;;28.57;20.63;;;10.80;99.90;;;;;;5114464;28;20184;-82
2023/04/17 09:49:09;;;;;;;26.77;20.10;;;10.90;99.90;;;;;;5095499;28;20203;-80
2023/04/17 09:51:36;;;;;;;25.70;20.10;;;10.90;99.90;;;;;;5094742;28;20223;-82
2023/04/17 09:54:05;;;;;;;23.97;19.40;;;11.00;99.90;;;;;;5095307;28;20205;-81
2023/04/17 09:56:34;;;;;;;24.70;19.67;;;11.20;99.90;;;;;;5094906;28;20287;-78
2023/04/17 09:59:02;;;;;;;24.07;19.33;;;11.30;99.90;;;;;;5093273;28;20203;-78
2023/04/17 10:01:32;;;;;;;26.83;20.40;;;11.40;99.90;;;;;;5094627;28;20200;-78
2023/04/17 10:04:00;;;;;;;24.77;20.00;;;11.40;99.90;;;;;;5094279;28;20280;-78
2023/04/17 10:06:28;;;;;;;28.93;20.30;;;11.40;99.90;;;;;;5093904;28;20296;-82
2023/04/17 10:08:55;;;;;;;28.30;21.33;;;11.50;99.90;;;;;;5094298;28;20223;-79
2023/04/17 10:11:26;;;;;;;29.80;21.57;;;11.60;99.90;;;;;;5092018;28;20220;-78
2023/04/17 10:14:04;;;;;;;28.63;20.33;;;11.70;99.90;;;;;;5093471;28;20200;-80
2023/04/17 10:16:36;;;;;;;28.97;20.43;;;11.80;99.90;;;;;;5094257;28;20181;-77
2023/04/17 10:19:27;;;;;;;28.83;20.53;;;12.00;99.90;;;;;;5099780;28;20223;-80
2023/04/17 10:22:31;;;;;;;26.97;21.40;;;12.10;99.90;;;;;;5114609;28;20196;-80
2023/04/17 10:25:23;;;;;;;31.20;20.43;;;12.10;99.90;;;;;;5105291;28;20215;-80
2023/04/17 10:27:57;;;;;;;24.27;19.30;;;12.10;99.90;;;;;;5084125;28;20201;-79
2023/04/17 10:30:25;;;;;;;25.63;19.27;;;12.20;99.90;;;;;;5093573;28;20240;-80
2023/04/17 10:33:26;;;;;;;23.87;18.90;;;12.40;99.90;;;;;;5093602;28;20203;-81
2023/04/17 10:35:54;;;;;;;28.07;19.07;;;12.40;99.90;;;;;;5119564;22;20570;-81
2023/04/17 10:38:36;;;;;;;24.73;19.03;;;12.70;99.90;;;;;;5114576;28;20200;-80
2023/04/17 10:41:07;;;;;;;27.10;18.90;;;12.80;99.90;;;;;;5110068;28;20303;-81
2023/04/17 10:43:40;;;;;;;22.00;18.07;;;12.90;99.90;;;;;;5094908;28;20205;-81
2023/04/17 10:46:10;;;;;;;22.77;17.13;;;13.10;99.90;;;;;;5093400;28;20184;-79
2023/04/17 10:48:40;;;;;;;23.83;19.07;;;13.20;99.90;;;;;;5092646;28;20196;-79
2023/04/17 11:23:16;;;;;;;18.77;16.67;;;14.10;99.90;;;;;;5084581;28;20768;-78
2023/04/17 11:25:43;;;;;;;23.52;20.38;;;14.10;99.90;;;;;;5069066;28;20541;-79
2023/04/17 11:28:11;;;;;;;23.53;17.40;;;14.20;99.90;;;;;;5069700;28;20219;-80
2023/04/17 11:30:43;;;;;;;28.10;18.77;;;14.10;99.90;;;;;;5052399;28;20212;-78
2023/04/17 11:33:11;;;;;;;22.83;18.33;;;14.20;99.90;;;;;;5049386;28;20285;-78
2023/04/17 11:35:39;;;;;;;21.83;16.60;;;14.30;99.90;;;;;;5049897;28;20202;-80
2023/04/17 11:38:10;;;;;;;19.87;16.47;;;14.50;99.90;;;;;;5049259;28;20214;-80
2023/04/17 11:40:43;;;;;;;20.57;16.30;;;14.50;99.90;;;;;;5050514;28;20246;-79
2023/04/17 11:43:10;;;;;;;22.67;16.63;;;14.60;99.90;;;;;;5067117;28;20221;-78
2023/04/17 11:45:39;;;;;;;22.37;17.13;;;14.70;99.90;;;;;;5068180;28;20209;-79
2023/04/17 11:48:09;;;;;;;24.23;17.17;;;14.90;99.90;;;;;;5068687;28;20199;-78
2023/04/17 11:50:36;;;;;;;22.13;17.43;;;15.10;99.90;;;;;;5060334;28;20304;-78
2023/04/17 11:53:04;;;;;;;19.93;16.60;;;15.20;99.90;;;;;;5049119;28;20590;-81
2023/04/17 11:55:32;;;;;;;23.48;17.52;;;15.50;99.90;;;;;;5049864;28;20199;-81
2023/04/17 11:58:02;;;;;;;24.45;19.52;;;15.50;99.90;;;;;;5049938;28;20206;-81
2023/04/17 12:00:31;;;;;;;20.55;17.80;;;15.60;99.90;;;;;;5050016;28;20198;-82
2023/04/17 12:02:59;;;;;;;18.73;16.03;;;15.70;99.90;;;;;;5048631;28;20226;-85
2023/04/17 12:05:27;;;;;;;20.48;17.05;;;15.60;99.90;;;;;;5048263;28;20252;-83
2023/04/17 12:08:02;;;;;;;20.15;16.63;;;15.50;99.90;;;;;;5068259;28;20248;-82
2023/04/17 12:10:41;;;;;;;24.05;17.40;;;15.70;99.90;;;;;;5068002;28;20212;-82
2023/04/17 12:13:10;;;;;;;19.85;16.48;;;15.80;99.90;;;;;;5069872;28;20204;-83
2023/04/17 12:15:37;;;;;;;21.17;16.52;;;16.00;99.90;;;;;;5070992;28;20202;-83
2023/04/17 12:18:05;;;;;;;20.70;17.30;;;16.00;99.90;;;;;;5049833;28;20290;-82
2023/04/17 12:20:36;;;;;;;19.75;16.73;;;16.20;99.90;;;;;;5049872;28;20800;-84
2023/04/17 12:23:04;;;;;;;19.35;15.82;;;16.10;99.90;;;;;;5049114;28;20237;-83
2023/04/17 12:25:32;;;;;;;20.75;16.40;;;16.30;99.90;;;;;;5049093;28;20282;-83
2023/04/17 12:27:59;;;;;;;19.55;17.00;;;16.30;99.90;;;;;;5049294;28;20289;-82
2023/04/17 12:30:28;;;;;;;19.88;16.77;;;16.40;99.90;;;;;;5048089;28;20686;-82
2023/04/17 12:32:55;;;;;;;21.85;17.55;;;16.30;99.90;;;;;;5044540;28;20245;-81
2023/04/17 12:35:23;;;;;;;21.42;18.00;;;16.30;99.90;;;;;;5036083;28;20202;-82
2023/04/17 12:37:51;;;;;;;21.88;16.67;;;16.10;99.90;;;;;;5036148;28;20194;-81
2023/04/17 12:40:19;;;;;;;21.85;16.77;;;16.20;99.90;;;;;;5035589;28;20209;-84
2023/04/17 12:42:47;;;;;;;20.17;16.70;;;16.30;99.90;;;;;;5039578;28;20220;-84
2023/04/17 12:45:14;;;;;;;19.63;16.42;;;16.40;99.90;;;;;;5055944;28;20236;-82
2023/04/17 12:47:42;;;;;;;21.40;17.25;;;16.50;99.90;;;;;;5054663;28;20281;-81
2023/04/17 12:50:11;;;;;;;19.63;16.90;;;16.60;99.90;;;;;;5049322;28;20531;-80
2023/04/17 12:52:38;;;;;;;19.38;16.17;;;16.80;99.90;;;;;;5034694;28;20591;-77
2023/04/17 12:55:06;;;;;;;17.50;14.85;;;16.70;99.90;;;;;;5033378;28;20211;-79
2023/04/17 12:57:33;;;;;;;20.92;16.35;;;16.80;99.90;;;;;;5035179;28;20393;-81
2023/04/17 13:00:00;;;;;;;17.77;15.88;;;17.00;99.90;;;;;;5035158;28;20213;-80
2023/04/17 13:02:27;;;;;;;17.77;15.15;;;17.20;99.90;;;;;;5033683;28;20253;-81
2023/04/17 13:04:56;;;;;;;17.30;14.68;;;16.90;99.90;;;;;;5033648;28;20562;-76
2023/04/17 13:07:23;;;;;;;18.65;14.75;;;16.80;99.90;;;;;;5033787;28;20753;-78
2023/04/17 13:09:50;;;;;;;15.77;13.55;;;16.60;99.90;;;;;;5032544;28;20194;-77
2023/04/17 13:12:17;;;;;;;18.73;15.55;;;16.40;99.90;;;;;;5034197;28;20203;-78